Virgilia, California
Current Conditions -  °F | °C
As of 10:02 AM on Sunday 21 Dec 2014 (Local Time) from KOVE Reporting Station
Haze Haze  
Wind Chill: 57°   Ceiling: 1300
Heat Index: 57°   Visibility: 4mi
Dew Point: 55°   Wind: 7mph
Humidity: 93%   Direction: 140°SE
Pressure: 30.3"   Gusts: NA
Location:  39.9994°N, 121.168°W
Report Text: KOVE 211802Z AUTO 14006KT 4SM BR OVC013 14/13 A3030 RMK AO2 RAE1759 P0000 T01390128
Loading
Personal Weather Stations






























Interactive Weather Map New forecast layout! Learn more

10-Day Weather Forecast

Advertisements
Track Severe Weather on mobile